Silver Lake, New Jersey
Current Conditions -  °F | °C
As of 7:53 PM on Tuesday 27 Jan 2015 (Local Time) from KFWN Reporting Station
Clear Clear  
Wind Chill: -13°   Ceiling: Unl
Heat Index: -7°   Visibility: 10mi
Dew Point: -16°   Wind: 8mph
Humidity: 50%   Direction: 320°NW
Pressure: 29.78"   Gusts: 17mph
Location:  41.1122°N, 74.4998°W
Report Text: KFWN 280053Z AUTO 32007G15KT 10SM CLR M07/M16 A2978 RMK AO2 SLP089 T10721161
Loading
Personal Weather Stations






























Interactive Weather Map New forecast layout! Learn more

10-Day Weather Forecast

Advertisements
Track Severe Weather on mobile